sensor_id;sensor_type;location;lat;lon;timestamp;P1;durP1;ratioP1;P2;durP2;ratioP2
9960;SDS011;5021;51.506;11.320;2022-08-05T00:01:21;6.50;;;2.20;;
9960;SDS011;5021;51.506;11.320;2022-08-05T00:03:48;6.70;;;2.50;;
9960;SDS011;5021;51.506;11.320;2022-08-05T00:06:14;6.27;;;2.40;;
9960;SDS011;5021;51.506;11.320;2022-08-05T00:08:40;3.70;;;2.67;;
9960;SDS011;5021;51.506;11.320;2022-08-05T00:11:10;5.37;;;2.77;;
9960;SDS011;5021;51.506;11.320;2022-08-05T00:13:37;8.40;;;2.40;;
9960;SDS011;5021;51.506;11.320;2022-08-05T00:16:03;5.40;;;2.70;;
9960;SDS011;5021;51.506;11.320;2022-08-05T00:18:29;7.10;;;2.60;;
9960;SDS011;5021;51.506;11.320;2022-08-05T00:20:56;3.90;;;2.00;;
9960;SDS011;5021;51.506;11.320;2022-08-05T00:23:22;3.60;;;2.43;;
9960;SDS011;5021;51.506;11.320;2022-08-05T00:25:48;4.00;;;2.30;;
9960;SDS011;5021;51.506;11.320;2022-08-05T00:28:14;4.83;;;2.20;;
9960;SDS011;5021;51.506;11.320;2022-08-05T00:30:40;2.87;;;2.33;;
9960;SDS011;5021;51.506;11.320;2022-08-05T00:33:07;4.70;;;2.43;;
9960;SDS011;5021;51.506;11.320;2022-08-05T00:35:33;6.33;;;2.57;;
9960;SDS011;5021;51.506;11.320;2022-08-05T00:37:59;5.70;;;2.43;;
9960;SDS011;5021;51.506;11.320;2022-08-05T00:40:25;8.73;;;2.43;;
9960;SDS011;5021;51.506;11.320;2022-08-05T00:42:51;5.53;;;2.53;;
9960;SDS011;5021;51.506;11.320;2022-08-05T00:45:18;7.67;;;2.57;;
9960;SDS011;5021;51.506;11.320;2022-08-05T00:47:44;4.10;;;2.23;;
9960;SDS011;5021;51.506;11.320;2022-08-05T00:50:10;4.33;;;2.60;;
9960;SDS011;5021;51.506;11.320;2022-08-05T00:52:36;7.03;;;2.70;;
9960;SDS011;5021;51.506;11.320;2022-08-05T00:55:02;7.83;;;2.80;;
9960;SDS011;5021;51.506;11.320;2022-08-05T00:57:29;3.90;;;2.80;;
9960;SDS011;5021;51.506;11.320;2022-08-05T00:59:55;4.30;;;2.63;;
9960;SDS011;5021;51.506;11.320;2022-08-05T01:02:21;4.37;;;2.60;;
9960;SDS011;5021;51.506;11.320;2022-08-05T01:04:47;5.10;;;2.97;;
9960;SDS011;5021;51.506;11.320;2022-08-05T01:07:13;3.70;;;2.27;;
9960;SDS011;5021;51.506;11.320;2022-08-05T01:09:39;4.40;;;2.30;;
9960;SDS011;5021;51.506;11.320;2022-08-05T01:12:06;4.00;;;2.20;;
9960;SDS011;5021;51.506;11.320;2022-08-05T01:29:48;3.40;;;2.33;;
9960;SDS011;5021;51.506;11.320;2022-08-05T01:32:15;6.37;;;2.87;;
9960;SDS011;5021;51.506;11.320;2022-08-05T01:34:44;2.63;;;2.13;;
9960;SDS011;5021;51.506;11.320;2022-08-05T01:37:18;3.63;;;2.50;;
9960;SDS011;5021;51.506;11.320;2022-08-05T01:39:47;4.63;;;2.40;;
9960;SDS011;5021;51.506;11.320;2022-08-05T01:42:15;3.30;;;2.50;;
9960;SDS011;5021;51.506;11.320;2022-08-05T01:44:42;2.53;;;2.20;;
9960;SDS011;5021;51.506;11.320;2022-08-05T01:47:09;2.80;;;2.23;;
9960;SDS011;5021;51.506;11.320;2022-08-05T01:49:35;2.77;;;2.33;;
9960;SDS011;5021;51.506;11.320;2022-08-05T01:52:03;2.63;;;2.07;;
9960;SDS011;5021;51.506;11.320;2022-08-05T01:54:32;5.30;;;2.67;;
9960;SDS011;5021;51.506;11.320;2022-08-05T01:56:59;2.47;;;2.20;;
9960;SDS011;5021;51.506;11.320;2022-08-05T01:59:25;4.37;;;2.70;;
9960;SDS011;5021;51.506;11.320;2022-08-05T02:01:52;5.20;;;2.40;;
9960;SDS011;5021;51.506;11.320;2022-08-05T02:04:19;7.63;;;2.93;;
9960;SDS011;5021;51.506;11.320;2022-08-05T02:06:47;6.13;;;2.67;;
9960;SDS011;5021;51.506;11.320;2022-08-05T02:09:13;4.87;;;2.60;;
9960;SDS011;5021;51.506;11.320;2022-08-05T02:11:41;6.80;;;2.70;;
9960;SDS011;5021;51.506;11.320;2022-08-05T02:14:08;4.97;;;2.77;;
9960;SDS011;5021;51.506;11.320;2022-08-05T02:16:38;4.23;;;2.70;;
9960;SDS011;5021;51.506;11.320;2022-08-05T02:19:16;4.33;;;2.57;;
9960;SDS011;5021;51.506;11.320;2022-08-05T02:21:45;3.93;;;2.43;;
9960;SDS011;5021;51.506;11.320;2022-08-05T02:24:13;5.43;;;2.70;;
9960;SDS011;5021;51.506;11.320;2022-08-05T02:26:45;5.03;;;2.90;;
9960;SDS011;5021;51.506;11.320;2022-08-05T02:29:11;3.30;;;2.73;;
9960;SDS011;5021;51.506;11.320;2022-08-05T02:31:38;4.90;;;2.80;;
9960;SDS011;5021;51.506;11.320;2022-08-05T02:34:08;4.30;;;2.87;;
9960;SDS011;5021;51.506;11.320;2022-08-05T02:36:37;6.00;;;2.77;;
9960;SDS011;5021;51.506;11.320;2022-08-05T02:39:04;5.77;;;2.53;;
9960;SDS011;5021;51.506;11.320;2022-08-05T02:41:31;3.93;;;2.67;;
9960;SDS011;5021;51.506;11.320;2022-08-05T02:43:58;5.70;;;3.27;;
9960;SDS011;5021;51.506;11.320;2022-08-05T02:46:25;2.90;;;2.40;;
9960;SDS011;5021;51.506;11.320;2022-08-05T02:48:51;4.63;;;2.57;;
9960;SDS011;5021;51.506;11.320;2022-08-05T02:51:18;5.10;;;2.70;;
9960;SDS011;5021;51.506;11.320;2022-08-05T02:53:44;3.90;;;2.70;;
9960;SDS011;5021;51.506;11.320;2022-08-05T02:56:11;3.30;;;2.80;;
9960;SDS011;5021;51.506;11.320;2022-08-05T02:58:40;4.53;;;2.80;;
9960;SDS011;5021;51.506;11.320;2022-08-05T03:01:06;4.87;;;2.77;;
9960;SDS011;5021;51.506;11.320;2022-08-05T03:03:34;3.80;;;2.90;;
9960;SDS011;5021;51.506;11.320;2022-08-05T03:06:04;4.63;;;3.07;;
9960;SDS011;5021;51.506;11.320;2022-08-05T03:08:30;3.87;;;2.90;;
9960;SDS011;5021;51.506;11.320;2022-08-05T03:10:57;5.60;;;3.03;;
9960;SDS011;5021;51.506;11.320;2022-08-05T03:13:23;5.07;;;3.17;;
9960;SDS011;5021;51.506;11.320;2022-08-05T03:15:49;4.30;;;2.90;;
9960;SDS011;5021;51.506;11.320;2022-08-05T03:18:15;5.67;;;2.90;;
9960;SDS011;5021;51.506;11.320;2022-08-05T03:20:41;5.13;;;2.97;;
9960;SDS011;5021;51.506;11.320;2022-08-05T03:23:08;4.60;;;3.10;;
9960;SDS011;5021;51.506;11.320;2022-08-05T03:25:35;3.20;;;2.90;;
9960;SDS011;5021;51.506;11.320;2022-08-05T03:28:03;5.13;;;2.97;;
9960;SDS011;5021;51.506;11.320;2022-08-05T03:30:29;6.93;;;3.40;;
9960;SDS011;5021;51.506;11.320;2022-08-05T03:33:02;5.30;;;3.77;;
9960;SDS011;5021;51.506;11.320;2022-08-05T03:35:28;8.87;;;3.63;;
9960;SDS011;5021;51.506;11.320;2022-08-05T03:37:57;7.27;;;3.80;;
9960;SDS011;5021;51.506;11.320;2022-08-05T03:40:23;6.60;;;4.30;;
9960;SDS011;5021;51.506;11.320;2022-08-05T03:42:49;5.07;;;3.77;;
9960;SDS011;5021;51.506;11.320;2022-08-05T03:45:15;5.10;;;4.60;;
9960;SDS011;5021;51.506;11.320;2022-08-05T03:47:41;6.63;;;4.13;;
9960;SDS011;5021;51.506;11.320;2022-08-05T03:50:07;5.20;;;4.00;;
9960;SDS011;5021;51.506;11.320;2022-08-05T03:52:36;6.83;;;5.30;;
9960;SDS011;5021;51.506;11.320;2022-08-05T03:55:06;7.80;;;5.33;;
9960;SDS011;5021;51.506;11.320;2022-08-05T03:57:35;9.07;;;5.37;;
9960;SDS011;5021;51.506;11.320;2022-08-05T04:00:06;7.20;;;5.00;;
9960;SDS011;5021;51.506;11.320;2022-08-05T04:02:33;7.00;;;4.57;;
9960;SDS011;5021;51.506;11.320;2022-08-05T04:05:00;9.07;;;6.03;;
9960;SDS011;5021;51.506;11.320;2022-08-05T04:07:27;9.03;;;7.03;;
9960;SDS011;5021;51.506;11.320;2022-08-05T04:09:53;8.43;;;7.47;;
9960;SDS011;5021;51.506;11.320;2022-08-05T04:12:19;7.67;;;6.87;;
9960;SDS011;5021;51.506;11.320;2022-08-05T04:14:45;9.03;;;8.13;;
9960;SDS011;5021;51.506;11.320;2022-08-05T04:17:11;10.20;;;8.37;;
9960;SDS011;5021;51.506;11.320;2022-08-05T04:19:41;8.40;;;7.37;;
9960;SDS011;5021;51.506;11.320;2022-08-05T04:22:08;9.00;;;8.20;;
9960;SDS011;5021;51.506;11.320;2022-08-05T04:24:34;10.33;;;7.73;;
9960;SDS011;5021;51.506;11.320;2022-08-05T04:27:00;8.10;;;6.47;;
9960;SDS011;5021;51.506;11.320;2022-08-05T04:29:26;9.67;;;7.60;;
9960;SDS011;5021;51.506;11.320;2022-08-05T04:31:52;8.70;;;7.17;;
9960;SDS011;5021;51.506;11.320;2022-08-05T04:34:18;7.30;;;6.60;;
9960;SDS011;5021;51.506;11.320;2022-08-05T04:36:44;7.43;;;6.63;;
9960;SDS011;5021;51.506;11.320;2022-08-05T04:39:10;8.33;;;6.83;;
9960;SDS011;5021;51.506;11.320;2022-08-05T04:41:36;7.80;;;6.43;;
9960;SDS011;5021;51.506;11.320;2022-08-05T04:44:02;7.70;;;6.83;;
9960;SDS011;5021;51.506;11.320;2022-08-05T04:46:28;9.37;;;7.00;;
9960;SDS011;5021;51.506;11.320;2022-08-05T04:48:54;7.17;;;6.47;;
9960;SDS011;5021;51.506;11.320;2022-08-05T04:51:20;6.97;;;6.27;;
9960;SDS011;5021;51.506;11.320;2022-08-05T04:53:46;8.30;;;6.30;;
9960;SDS011;5021;51.506;11.320;2022-08-05T04:56:12;6.67;;;5.97;;
9960;SDS011;5021;51.506;11.320;2022-08-05T04:58:39;6.10;;;5.50;;
9960;SDS011;5021;51.506;11.320;2022-08-05T05:01:05;6.97;;;6.17;;
9960;SDS011;5021;51.506;11.320;2022-08-05T05:03:31;8.17;;;5.60;;
9960;SDS011;5021;51.506;11.320;2022-08-05T05:05:57;8.27;;;7.27;;
9960;SDS011;5021;51.506;11.320;2022-08-05T05:08:23;8.37;;;6.63;;
9960;SDS011;5021;51.506;11.320;2022-08-05T05:10:49;8.87;;;6.97;;
9960;SDS011;5021;51.506;11.320;2022-08-05T05:13:15;9.43;;;6.50;;
9960;SDS011;5021;51.506;11.320;2022-08-05T05:15:43;7.23;;;6.30;;
9960;SDS011;5021;51.506;11.320;2022-08-05T05:18:13;8.47;;;7.13;;
9960;SDS011;5021;51.506;11.320;2022-08-05T05:20:41;12.10;;;7.20;;
9960;SDS011;5021;51.506;11.320;2022-08-05T05:23:07;7.37;;;6.67;;
9960;SDS011;5021;51.506;11.320;2022-08-05T05:25:33;7.80;;;7.10;;
9960;SDS011;5021;51.506;11.320;2022-08-05T05:27:59;9.20;;;6.93;;
9960;SDS011;5021;51.506;11.320;2022-08-05T05:30:25;8.87;;;7.13;;
9960;SDS011;5021;51.506;11.320;2022-08-05T05:32:51;8.40;;;7.07;;
9960;SDS011;5021;51.506;11.320;2022-08-05T05:35:18;8.00;;;7.30;;
9960;SDS011;5021;51.506;11.320;2022-08-05T05:37:52;8.23;;;7.43;;
9960;SDS011;5021;51.506;11.320;2022-08-05T05:40:18;9.87;;;8.87;;
9960;SDS011;5021;51.506;11.320;2022-08-05T05:42:45;10.10;;;7.90;;
9960;SDS011;5021;51.506;11.320;2022-08-05T05:45:11;9.03;;;8.10;;
9960;SDS011;5021;51.506;11.320;2022-08-05T05:47:37;9.27;;;8.37;;
9960;SDS011;5021;51.506;11.320;2022-08-05T05:50:04;9.87;;;8.17;;
9960;SDS011;5021;51.506;11.320;2022-08-05T05:52:30;9.70;;;8.30;;
9960;SDS011;5021;51.506;11.320;2022-08-05T05:55:00;9.30;;;8.40;;
9960;SDS011;5021;51.506;11.320;2022-08-05T05:57:26;10.93;;;9.83;;
9960;SDS011;5021;51.506;11.320;2022-08-05T05:59:52;9.47;;;8.57;;
9960;SDS011;5021;51.506;11.320;2022-08-05T06:02:18;8.40;;;7.63;;
9960;SDS011;5021;51.506;11.320;2022-08-05T06:04:44;9.70;;;7.43;;
9960;SDS011;5021;51.506;11.320;2022-08-05T06:07:10;8.03;;;7.33;;
9960;SDS011;5021;51.506;11.320;2022-08-05T06:09:36;7.23;;;6.53;;
9960;SDS011;5021;51.506;11.320;2022-08-05T06:12:02;6.70;;;6.03;;
9960;SDS011;5021;51.506;11.320;2022-08-05T06:14:29;7.90;;;6.57;;
9960;SDS011;5021;51.506;11.320;2022-08-05T06:16:55;7.00;;;6.30;;
9960;SDS011;5021;51.506;11.320;2022-08-05T06:19:21;8.70;;;6.30;;
9960;SDS011;5021;51.506;11.320;2022-08-05T06:21:47;6.83;;;6.23;;
9960;SDS011;5021;51.506;11.320;2022-08-05T06:24:13;6.90;;;6.13;;
9960;SDS011;5021;51.506;11.320;2022-08-05T06:26:39;6.20;;;5.60;;
9960;SDS011;5021;51.506;11.320;2022-08-05T06:29:05;6.93;;;6.10;;
9960;SDS011;5021;51.506;11.320;2022-08-05T06:31:31;5.90;;;5.40;;
9960;SDS011;5021;51.506;11.320;2022-08-05T06:33:57;6.17;;;5.57;;
9960;SDS011;5021;51.506;11.320;2022-08-05T06:36:23;6.33;;;5.73;;
9960;SDS011;5021;51.506;11.320;2022-08-05T06:38:49;6.23;;;5.50;;
9960;SDS011;5021;51.506;11.320;2022-08-05T06:41:18;6.10;;;5.50;;
9960;SDS011;5021;51.506;11.320;2022-08-05T06:43:44;7.07;;;6.00;;
9960;SDS011;5021;51.506;11.320;2022-08-05T06:46:10;6.07;;;5.57;;
9960;SDS011;5021;51.506;11.320;2022-08-05T06:48:37;6.33;;;5.73;;
9960;SDS011;5021;51.506;11.320;2022-08-05T06:51:03;6.53;;;5.37;;
9960;SDS011;5021;51.506;11.320;2022-08-05T06:53:29;6.70;;;5.97;;
9960;SDS011;5021;51.506;11.320;2022-08-05T06:55:58;7.70;;;6.20;;
9960;SDS011;5021;51.506;11.320;2022-08-05T06:58:25;8.53;;;5.80;;
9960;SDS011;5021;51.506;11.320;2022-08-05T07:00:51;6.47;;;5.87;;
9960;SDS011;5021;51.506;11.320;2022-08-05T07:03:17;6.17;;;5.63;;
9960;SDS011;5021;51.506;11.320;2022-08-05T07:05:44;5.67;;;5.17;;
9960;SDS011;5021;51.506;11.320;2022-08-05T07:08:10;6.47;;;5.87;;
9960;SDS011;5021;51.506;11.320;2022-08-05T07:10:36;6.83;;;6.13;;
9960;SDS011;5021;51.506;11.320;2022-08-05T07:13:02;7.10;;;5.97;;
9960;SDS011;5021;51.506;11.320;2022-08-05T07:15:47;7.67;;;6.30;;
9960;SDS011;5021;51.506;11.320;2022-08-05T07:18:31;6.53;;;5.97;;
9960;SDS011;5021;51.506;11.320;2022-08-05T07:20:57;8.83;;;6.07;;
9960;SDS011;5021;51.506;11.320;2022-08-05T07:23:23;6.30;;;5.70;;
9960;SDS011;5021;51.506;11.320;2022-08-05T07:25:49;6.07;;;5.57;;
9960;SDS011;5021;51.506;11.320;2022-08-05T07:28:15;5.70;;;5.20;;
9960;SDS011;5021;51.506;11.320;2022-08-05T07:30:41;6.63;;;5.97;;
9960;SDS011;5021;51.506;11.320;2022-08-05T07:33:08;6.43;;;5.83;;
9960;SDS011;5021;51.506;11.320;2022-08-05T07:35:34;5.97;;;5.37;;
9960;SDS011;5021;51.506;11.320;2022-08-05T07:38:00;6.10;;;5.50;;
9960;SDS011;5021;51.506;11.320;2022-08-05T07:40:26;9.67;;;6.00;;
9960;SDS011;5021;51.506;11.320;2022-08-05T07:42:52;8.63;;;6.03;;
9960;SDS011;5021;51.506;11.320;2022-08-05T07:45:19;6.67;;;5.57;;
9960;SDS011;5021;51.506;11.320;2022-08-05T07:47:45;8.80;;;6.07;;
9960;SDS011;5021;51.506;11.320;2022-08-05T07:50:11;7.10;;;6.23;;
9960;SDS011;5021;51.506;11.320;2022-08-05T07:52:40;10.10;;;6.87;;
9960;SDS011;5021;51.506;11.320;2022-08-05T07:55:07;7.13;;;6.53;;
9960;SDS011;5021;51.506;11.320;2022-08-05T07:57:33;7.67;;;6.90;;
9960;SDS011;5021;51.506;11.320;2022-08-05T07:59:59;7.70;;;6.57;;
9960;SDS011;5021;51.506;11.320;2022-08-05T08:02:26;7.47;;;6.70;;
9960;SDS011;5021;51.506;11.320;2022-08-05T08:04:53;9.53;;;6.10;;
9960;SDS011;5021;51.506;11.320;2022-08-05T08:07:19;7.73;;;6.80;;
9960;SDS011;5021;51.506;11.320;2022-08-05T08:09:45;8.23;;;7.37;;
9960;SDS011;5021;51.506;11.320;2022-08-05T08:12:11;10.57;;;7.10;;
9960;SDS011;5021;51.506;11.320;2022-08-05T08:14:38;7.47;;;6.77;;
9960;SDS011;5021;51.506;11.320;2022-08-05T08:17:04;8.00;;;7.17;;
9960;SDS011;5021;51.506;11.320;2022-08-05T08:19:34;8.03;;;7.27;;
9960;SDS011;5021;51.506;11.320;2022-08-05T08:22:00;7.50;;;6.80;;
9960;SDS011;5021;51.506;11.320;2022-08-05T08:24:26;7.57;;;6.77;;
9960;SDS011;5021;51.506;11.320;2022-08-05T08:26:52;9.30;;;7.10;;
9960;SDS011;5021;51.506;11.320;2022-08-05T08:29:18;8.40;;;7.60;;
9960;SDS011;5021;51.506;11.320;2022-08-05T08:31:44;8.10;;;7.37;;
9960;SDS011;5021;51.506;11.320;2022-08-05T08:34:11;9.10;;;7.70;;
9960;SDS011;5021;51.506;11.320;2022-08-05T08:36:37;8.87;;;7.20;;
9960;SDS011;5021;51.506;11.320;2022-08-05T08:39:03;7.53;;;6.83;;
9960;SDS011;5021;51.506;11.320;2022-08-05T08:41:29;8.07;;;6.67;;
9960;SDS011;5021;51.506;11.320;2022-08-05T08:43:58;7.97;;;7.17;;
9960;SDS011;5021;51.506;11.320;2022-08-05T08:46:26;7.47;;;6.57;;
9960;SDS011;5021;51.506;11.320;2022-08-05T08:48:53;8.57;;;7.20;;
9960;SDS011;5021;51.506;11.320;2022-08-05T08:51:19;7.57;;;6.20;;
9960;SDS011;5021;51.506;11.320;2022-08-05T08:53:46;6.43;;;5.80;;
9960;SDS011;5021;51.506;11.320;2022-08-05T08:56:14;7.23;;;5.90;;
9960;SDS011;5021;51.506;11.320;2022-08-05T08:58:40;8.98;;;6.38;;
9960;SDS011;5021;51.506;11.320;2022-08-05T09:01:06;8.60;;;7.63;;
9960;SDS011;5021;51.506;11.320;2022-08-05T09:03:33;7.97;;;6.63;;
9960;SDS011;5021;51.506;11.320;2022-08-05T09:06:00;7.75;;;6.63;;
9960;SDS011;5021;51.506;11.320;2022-08-05T09:08:26;9.07;;;6.53;;
9960;SDS011;5021;51.506;11.320;2022-08-05T09:10:52;7.50;;;6.70;;
9960;SDS011;5021;51.506;11.320;2022-08-05T09:13:18;7.15;;;6.45;;
9960;SDS011;5021;51.506;11.320;2022-08-05T09:15:45;7.32;;;6.63;;
9960;SDS011;5021;51.506;11.320;2022-08-05T09:18:11;11.88;;;6.65;;
9960;SDS011;5021;51.506;11.320;2022-08-05T09:20:37;7.70;;;6.40;;
9960;SDS011;5021;51.506;11.320;2022-08-05T09:25:41;5.97;;;5.43;;
9960;SDS011;5021;51.506;11.320;2022-08-05T09:28:15;7.60;;;5.97;;
9960;SDS011;5021;51.506;11.320;2022-08-05T09:30:43;6.93;;;6.32;;
9960;SDS011;5021;51.506;11.320;2022-08-05T09:33:09;6.95;;;6.25;;
9960;SDS011;5021;51.506;11.320;2022-08-05T09:35:35;6.43;;;5.80;;
9960;SDS011;5021;51.506;11.320;2022-08-05T09:38:02;8.65;;;5.63;;
9960;SDS011;5021;51.506;11.320;2022-08-05T09:40:34;6.28;;;5.68;;
9960;SDS011;5021;51.506;11.320;2022-08-05T09:43:02;6.32;;;5.65;;
9960;SDS011;5021;51.506;11.320;2022-08-05T09:45:38;5.43;;;4.88;;
9960;SDS011;5021;51.506;11.320;2022-08-05T09:48:17;6.93;;;5.13;;
9960;SDS011;5021;51.506;11.320;2022-08-05T09:50:47;7.05;;;5.00;;
9960;SDS011;5021;51.506;11.320;2022-08-05T09:53:13;5.13;;;4.63;;
9960;SDS011;5021;51.506;11.320;2022-08-05T09:55:39;5.55;;;4.50;;
9960;SDS011;5021;51.506;11.320;2022-08-05T09:58:08;6.10;;;5.00;;
9960;SDS011;5021;51.506;11.320;2022-08-05T10:00:35;5.47;;;4.97;;
9960;SDS011;5021;51.506;11.320;2022-08-05T10:03:01;7.55;;;5.15;;
9960;SDS011;5021;51.506;11.320;2022-08-05T10:05:33;5.30;;;4.80;;
9960;SDS011;5021;51.506;11.320;2022-08-05T10:08:00;6.30;;;5.13;;
9960;SDS011;5021;51.506;11.320;2022-08-05T10:10:31;6.93;;;5.53;;
9960;SDS011;5021;51.506;11.320;2022-08-05T10:12:58;6.18;;;4.55;;
9960;SDS011;5021;51.506;11.320;2022-08-05T10:18:05;5.50;;;4.97;;
9960;SDS011;5021;51.506;11.320;2022-08-05T10:20:32;5.88;;;4.65;;
9960;SDS011;5021;51.506;11.320;2022-08-05T10:22:58;6.57;;;4.30;;
9960;SDS011;5021;51.506;11.320;2022-08-05T10:25:25;5.72;;;4.57;;
9960;SDS011;5021;51.506;11.320;2022-08-05T10:27:51;7.18;;;5.00;;
9960;SDS011;5021;51.506;11.320;2022-08-05T10:30:20;5.53;;;4.88;;
9960;SDS011;5021;51.506;11.320;2022-08-05T10:32:46;5.80;;;5.13;;
9960;SDS011;5021;51.506;11.320;2022-08-05T10:35:13;6.20;;;5.47;;
9960;SDS011;5021;51.506;11.320;2022-08-05T10:37:39;5.47;;;4.97;;
9960;SDS011;5021;51.506;11.320;2022-08-05T10:40:13;6.50;;;4.78;;
9960;SDS011;5021;51.506;11.320;2022-08-05T10:42:41;5.13;;;4.63;;
9960;SDS011;5021;51.506;11.320;2022-08-05T10:45:07;5.78;;;5.18;;
9960;SDS011;5021;51.506;11.320;2022-08-05T10:47:34;5.07;;;4.57;;
9960;SDS011;5021;51.506;11.320;2022-08-05T10:50:08;5.03;;;4.43;;
9960;SDS011;5021;51.506;11.320;2022-08-05T10:52:39;6.10;;;5.07;;
9960;SDS011;5021;51.506;11.320;2022-08-05T10:55:06;5.63;;;4.97;;
9960;SDS011;5021;51.506;11.320;2022-08-05T10:57:34;4.97;;;4.57;;
9960;SDS011;5021;51.506;11.320;2022-08-05T11:05:28;5.38;;;4.82;;
9960;SDS011;5021;51.506;11.320;2022-08-05T11:07:57;4.68;;;4.20;;
9960;SDS011;5021;51.506;11.320;2022-08-05T11:10:24;5.20;;;4.45;;
9960;SDS011;5021;51.506;11.320;2022-08-05T11:12:51;5.07;;;4.50;;
9960;SDS011;5021;51.506;11.320;2022-08-05T11:17:43;5.28;;;4.60;;
9960;SDS011;5021;51.506;11.320;2022-08-05T11:22:54;6.45;;;4.07;;
9960;SDS011;5021;51.506;11.320;2022-08-05T11:25:33;4.82;;;4.00;;
9960;SDS011;5021;51.506;11.320;2022-08-05T11:31:20;4.53;;;3.40;;
9960;SDS011;5021;51.506;11.320;2022-08-05T11:33:36;4.82;;;3.75;;
9960;SDS011;5021;51.506;11.320;2022-08-05T11:36:06;6.47;;;3.72;;
9960;SDS011;5021;51.506;11.320;2022-08-05T11:41:14;4.15;;;3.75;;
9960;SDS011;5021;51.506;11.320;2022-08-05T11:43:56;3.88;;;3.47;;
9960;SDS011;5021;51.506;11.320;2022-08-05T11:46:26;4.65;;;4.13;;
9960;SDS011;5021;51.506;11.320;2022-08-05T11:48:53;3.85;;;3.42;;
9960;SDS011;5021;51.506;11.320;2022-08-05T11:51:19;4.13;;;3.35;;
9960;SDS011;5021;51.506;11.320;2022-08-05T11:53:46;3.40;;;3.10;;
9960;SDS011;5021;51.506;11.320;2022-08-05T11:56:12;4.30;;;3.17;;
9960;SDS011;5021;51.506;11.320;2022-08-05T11:58:40;3.60;;;3.20;;
9960;SDS011;5021;51.506;11.320;2022-08-05T12:01:07;4.03;;;3.35;;
9960;SDS011;5021;51.506;11.320;2022-08-05T12:03:55;4.90;;;2.83;;
9960;SDS011;5021;51.506;11.320;2022-08-05T12:06:23;3.10;;;2.80;;
9960;SDS011;5021;51.506;11.320;2022-08-05T12:08:54;3.10;;;2.80;;
9960;SDS011;5021;51.506;11.320;2022-08-05T12:11:21;2.85;;;2.60;;
9960;SDS011;5021;51.506;11.320;2022-08-05T12:13:55;5.38;;;3.00;;
9960;SDS011;5021;51.506;11.320;2022-08-05T12:16:23;3.55;;;2.78;;
9960;SDS011;5021;51.506;11.320;2022-08-05T12:18:49;2.85;;;2.53;;
9960;SDS011;5021;51.506;11.320;2022-08-05T12:21:17;3.45;;;2.83;;
9960;SDS011;5021;51.506;11.320;2022-08-05T12:26:35;3.08;;;2.75;;
9960;SDS011;5021;51.506;11.320;2022-08-05T12:29:06;3.50;;;2.85;;
9960;SDS011;5021;51.506;11.320;2022-08-05T12:31:33;2.90;;;2.58;;
9960;SDS011;5021;51.506;11.320;2022-08-05T12:34:03;3.20;;;2.40;;
9960;SDS011;5021;51.506;11.320;2022-08-05T12:36:31;3.50;;;2.65;;
9960;SDS011;5021;51.506;11.320;2022-08-05T12:38:57;3.08;;;2.50;;
9960;SDS011;5021;51.506;11.320;2022-08-05T12:41:29;4.10;;;2.67;;
9960;SDS011;5021;51.506;11.320;2022-08-05T12:44:05;3.47;;;3.00;;
9960;SDS011;5021;51.506;11.320;2022-08-05T12:46:32;3.80;;;2.80;;
9960;SDS011;5021;51.506;11.320;2022-08-05T12:49:05;2.63;;;2.40;;
9960;SDS011;5021;51.506;11.320;2022-08-05T12:51:45;3.58;;;2.33;;
9960;SDS011;5021;51.506;11.320;2022-08-05T12:54:29;3.13;;;2.60;;
9960;SDS011;5021;51.506;11.320;2022-08-05T12:57:02;4.05;;;2.53;;
9960;SDS011;5021;51.506;11.320;2022-08-05T12:59:29;3.03;;;2.55;;
9960;SDS011;5021;51.506;11.320;2022-08-05T13:02:00;2.88;;;2.65;;
9960;SDS011;5021;51.506;11.320;2022-08-05T13:04:28;2.97;;;2.40;;
9960;SDS011;5021;51.506;11.320;2022-08-05T13:06:56;2.88;;;2.58;;
9960;SDS011;5021;51.506;11.320;2022-08-05T13:09:23;2.97;;;2.70;;
9960;SDS011;5021;51.506;11.320;2022-08-05T13:11:49;3.60;;;3.22;;
9960;SDS011;5021;51.506;11.320;2022-08-05T13:19:11;3.10;;;2.80;;
9960;SDS011;5021;51.506;11.320;2022-08-05T13:21:38;2.88;;;2.60;;
9960;SDS011;5021;51.506;11.320;2022-08-05T13:24:05;3.30;;;2.63;;
9960;SDS011;5021;51.506;11.320;2022-08-05T13:26:31;3.03;;;2.72;;
9960;SDS011;5021;51.506;11.320;2022-08-05T13:28:57;2.70;;;2.50;;
9960;SDS011;5021;51.506;11.320;2022-08-05T13:31:23;2.75;;;2.55;;
9960;SDS011;5021;51.506;11.320;2022-08-05T13:33:49;3.45;;;2.97;;
9960;SDS011;5021;51.506;11.320;2022-08-05T13:36:15;3.33;;;2.70;;
9960;SDS011;5021;51.506;11.320;2022-08-05T13:38:42;3.72;;;2.67;;
9960;SDS011;5021;51.506;11.320;2022-08-05T13:41:11;3.13;;;2.80;;
9960;SDS011;5021;51.506;11.320;2022-08-05T13:43:39;4.95;;;3.00;;
9960;SDS011;5021;51.506;11.320;2022-08-05T13:46:05;2.75;;;2.50;;
9960;SDS011;5021;51.506;11.320;2022-08-05T13:48:32;3.65;;;3.25;;
9960;SDS011;5021;51.506;11.320;2022-08-05T13:51:06;3.20;;;2.70;;
9960;SDS011;5021;51.506;11.320;2022-08-05T13:53:33;2.85;;;2.60;;
9960;SDS011;5021;51.506;11.320;2022-08-05T13:56:00;3.95;;;2.83;;
9960;SDS011;5021;51.506;11.320;2022-08-05T13:58:26;7.85;;;7.05;;
9960;SDS011;5021;51.506;11.320;2022-08-05T14:00:52;16.25;;;14.85;;
9960;SDS011;5021;51.506;11.320;2022-08-05T14:03:19;19.77;;;18.08;;
9960;SDS011;5021;51.506;11.320;2022-08-05T14:05:45;22.23;;;20.33;;
9960;SDS011;5021;51.506;11.320;2022-08-05T14:08:12;23.93;;;21.70;;
9960;SDS011;5021;51.506;11.320;2022-08-05T14:10:38;23.47;;;21.27;;
9960;SDS011;5021;51.506;11.320;2022-08-05T14:13:04;27.17;;;24.47;;
9960;SDS011;5021;51.506;11.320;2022-08-05T14:15:34;18.83;;;16.83;;
9960;SDS011;5021;51.506;11.320;2022-08-05T14:18:01;15.90;;;14.40;;
9960;SDS011;5021;51.506;11.320;2022-08-05T14:20:27;13.83;;;12.53;;
9960;SDS011;5021;51.506;11.320;2022-08-05T14:22:55;11.73;;;10.00;;
9960;SDS011;5021;51.506;11.320;2022-08-05T14:25:21;9.63;;;8.67;;
9960;SDS011;5021;51.506;11.320;2022-08-05T14:27:49;8.87;;;8.07;;
9960;SDS011;5021;51.506;11.320;2022-08-05T14:30:16;11.30;;;10.10;;
9960;SDS011;5021;51.506;11.320;2022-08-05T14:32:42;14.93;;;11.90;;
9960;SDS011;5021;51.506;11.320;2022-08-05T14:35:09;14.40;;;12.70;;
9960;SDS011;5021;51.506;11.320;2022-08-05T14:37:36;16.90;;;14.30;;
9960;SDS011;5021;51.506;11.320;2022-08-05T14:40:03;18.63;;;14.57;;
9960;SDS011;5021;51.506;11.320;2022-08-05T14:42:29;16.53;;;14.03;;
9960;SDS011;5021;51.506;11.320;2022-08-05T14:44:56;16.13;;;13.90;;
9960;SDS011;5021;51.506;11.320;2022-08-05T14:47:22;14.83;;;13.33;;
9960;SDS011;5021;51.506;11.320;2022-08-05T14:49:48;14.97;;;12.73;;
9960;SDS011;5021;51.506;11.320;2022-08-05T14:52:14;11.70;;;10.50;;
9960;SDS011;5021;51.506;11.320;2022-08-05T14:54:40;10.30;;;9.20;;
9960;SDS011;5021;51.506;11.320;2022-08-05T14:57:06;10.37;;;9.30;;
9960;SDS011;5021;51.506;11.320;2022-08-05T14:59:33;10.00;;;9.00;;
9960;SDS011;5021;51.506;11.320;2022-08-05T15:01:59;10.40;;;8.30;;
9960;SDS011;5021;51.506;11.320;2022-08-05T15:04:25;10.30;;;8.53;;
9960;SDS011;5021;51.506;11.320;2022-08-05T15:06:52;10.50;;;8.10;;
9960;SDS011;5021;51.506;11.320;2022-08-05T15:09:18;7.97;;;7.17;;
9960;SDS011;5021;51.506;11.320;2022-08-05T15:11:45;9.53;;;7.50;;
9960;SDS011;5021;51.506;11.320;2022-08-05T15:14:11;9.67;;;6.50;;
9960;SDS011;5021;51.506;11.320;2022-08-05T15:16:39;8.30;;;6.60;;
9960;SDS011;5021;51.506;11.320;2022-08-05T15:19:05;8.23;;;6.23;;
9960;SDS011;5021;51.506;11.320;2022-08-05T15:21:31;8.13;;;7.00;;
9960;SDS011;5021;51.506;11.320;2022-08-05T15:23:58;8.43;;;6.30;;
9960;SDS011;5021;51.506;11.320;2022-08-05T15:26:25;12.23;;;7.37;;
9960;SDS011;5021;51.506;11.320;2022-08-05T15:28:51;7.70;;;5.90;;
9960;SDS011;5021;51.506;11.320;2022-08-05T15:31:17;7.27;;;5.13;;
9960;SDS011;5021;51.506;11.320;2022-08-05T15:33:44;9.13;;;5.50;;
9960;SDS011;5021;51.506;11.320;2022-08-05T15:36:10;7.10;;;5.27;;
9960;SDS011;5021;51.506;11.320;2022-08-05T15:38:36;7.40;;;5.03;;
9960;SDS011;5021;51.506;11.320;2022-08-05T15:41:03;8.47;;;4.83;;
9960;SDS011;5021;51.506;11.320;2022-08-05T15:43:29;6.93;;;4.40;;
9960;SDS011;5021;51.506;11.320;2022-08-05T15:45:55;6.67;;;4.43;;